Pagrindinis puslapis
METAR-TAF:

METAR-TAF

Oro uostai :

Uberaba, Minas Žeraisas, Brazilija

platuma: 19-47S, ilguma: 047-58W, Aukštis: 807 m

Dabartinis oras

Ataskaita buvo paskelbta 5 valandos ir 32 minutes, ne 01:00 UTC
Vėjas 4 kt iš Šiaurės Rytų
Temperatūra 20°C
Drėgmė 68%
Slėgis 1022 hPa
Matomumas 10 km arba daugiau
nėra debesų žemiau 1500 m ir nėra kamuolinių lietaus debesų

METAR: SBUR 070100Z 05004KT CAVOK 20/14 Q1022

Laikas: 03:32 (06:32 UTC)

Prognozė

Ataskaita buvo paskelbta 8 valandos ir 32 minutes, ne 22:00 UTC
Prognozė galioja nuo 07 metu 00 UTC su 07 metu 12 UTC
Vėjas 5 kt iš Šiaurės Rytų
Matomumas: 8000 m

TAF: SBUR 062200Z 0700/0712 04005KT 8000 NSCTX20/0700Z TN17/0709Z RMK PHM

Orai ataskaitas ir orų prognozės (METAR, TAF).

turimą stotys yra geltonos ir raudonos taškus žemėlapyje.

Perkelti pele per norėdami pamatyti stoties vardą.

Tada spustelėkite, norėdami matyti oro stebėjimo ir prognozės.

Norėdami pakeisti žemėlapį: spustelėkite ant žalios mygtukų su juodo kryžiaus žemyn,; žalią mygtuką su brūkšneliu, jei norite nutolinti; arba žalių rodyklių gretimoms žemėlapius.


METAR-TAF: